sensor_id;sensor_type;location;lat;lon;timestamp;P1;durP1;ratioP1;P2;durP2;ratioP2
7495;SDS011;3789;47.064;15.482;2024-03-08T00:00:12;13.87;;;9.37;;
7495;SDS011;3789;47.064;15.482;2024-03-08T00:02:43;12.60;;;8.53;;
7495;SDS011;3789;47.064;15.482;2024-03-08T00:05:13;11.83;;;8.33;;
7495;SDS011;3789;47.064;15.482;2024-03-08T00:07:42;14.60;;;8.47;;
7495;SDS011;3789;47.064;15.482;2024-03-08T00:10:10;12.83;;;8.90;;
7495;SDS011;3789;47.064;15.482;2024-03-08T00:12:41;13.03;;;9.03;;
7495;SDS011;3789;47.064;15.482;2024-03-08T00:15:16;15.10;;;8.37;;
7495;SDS011;3789;47.064;15.482;2024-03-08T00:17:45;15.97;;;9.73;;
7495;SDS011;3789;47.064;15.482;2024-03-08T00:20:14;14.97;;;10.03;;
7495;SDS011;3789;47.064;15.482;2024-03-08T00:22:45;13.90;;;8.83;;
7495;SDS011;3789;47.064;15.482;2024-03-08T00:25:13;15.63;;;9.20;;
7495;SDS011;3789;47.064;15.482;2024-03-08T00:27:41;14.63;;;10.23;;
7495;SDS011;3789;47.064;15.482;2024-03-08T00:30:09;16.70;;;9.40;;
7495;SDS011;3789;47.064;15.482;2024-03-08T00:32:39;12.63;;;8.93;;
7495;SDS011;3789;47.064;15.482;2024-03-08T00:35:07;15.47;;;8.47;;
7495;SDS011;3789;47.064;15.482;2024-03-08T00:37:35;13.17;;;9.10;;
7495;SDS011;3789;47.064;15.482;2024-03-08T00:40:03;13.90;;;8.50;;
7495;SDS011;3789;47.064;15.482;2024-03-08T00:42:32;12.13;;;8.33;;
7495;SDS011;3789;47.064;15.482;2024-03-08T00:45:00;16.33;;;9.83;;
7495;SDS011;3789;47.064;15.482;2024-03-08T00:47:28;15.43;;;9.80;;
7495;SDS011;3789;47.064;15.482;2024-03-08T00:49:56;15.00;;;9.33;;
7495;SDS011;3789;47.064;15.482;2024-03-08T00:52:24;17.40;;;9.47;;
7495;SDS011;3789;47.064;15.482;2024-03-08T00:54:51;16.87;;;9.33;;
7495;SDS011;3789;47.064;15.482;2024-03-08T00:57:19;14.67;;;9.27;;
7495;SDS011;3789;47.064;15.482;2024-03-08T00:59:47;13.93;;;9.37;;
7495;SDS011;3789;47.064;15.482;2024-03-08T01:02:15;15.33;;;9.50;;
7495;SDS011;3789;47.064;15.482;2024-03-08T01:04:45;12.67;;;9.10;;
7495;SDS011;3789;47.064;15.482;2024-03-08T01:07:13;13.47;;;9.27;;
7495;SDS011;3789;47.064;15.482;2024-03-08T01:09:42;15.80;;;9.33;;
7495;SDS011;3789;47.064;15.482;2024-03-08T01:12:09;20.07;;;11.17;;
7495;SDS011;3789;47.064;15.482;2024-03-08T01:14:37;16.47;;;10.10;;
7495;SDS011;3789;47.064;15.482;2024-03-08T01:17:05;14.10;;;9.33;;
7495;SDS011;3789;47.064;15.482;2024-03-08T01:19:32;14.87;;;8.70;;
7495;SDS011;3789;47.064;15.482;2024-03-08T01:21:59;15.03;;;10.07;;
7495;SDS011;3789;47.064;15.482;2024-03-08T01:24:27;13.03;;;8.97;;
7495;SDS011;3789;47.064;15.482;2024-03-08T01:26:54;13.67;;;8.90;;
7495;SDS011;3789;47.064;15.482;2024-03-08T01:29:22;12.70;;;8.13;;
7495;SDS011;3789;47.064;15.482;2024-03-08T01:31:49;13.57;;;9.17;;
7495;SDS011;3789;47.064;15.482;2024-03-08T01:34:19;13.90;;;9.77;;
7495;SDS011;3789;47.064;15.482;2024-03-08T01:36:46;14.47;;;9.23;;
7495;SDS011;3789;47.064;15.482;2024-03-08T01:39:13;15.63;;;8.77;;
7495;SDS011;3789;47.064;15.482;2024-03-08T01:41:41;17.03;;;9.70;;
7495;SDS011;3789;47.064;15.482;2024-03-08T01:44:08;14.40;;;9.43;;
7495;SDS011;3789;47.064;15.482;2024-03-08T01:46:35;13.60;;;8.93;;
7495;SDS011;3789;47.064;15.482;2024-03-08T01:49:03;12.07;;;8.77;;
7495;SDS011;3789;47.064;15.482;2024-03-08T01:51:31;13.20;;;8.83;;
7495;SDS011;3789;47.064;15.482;2024-03-08T01:53:58;13.97;;;9.50;;
7495;SDS011;3789;47.064;15.482;2024-03-08T01:56:30;14.83;;;10.07;;
7495;SDS011;3789;47.064;15.482;2024-03-08T01:58:58;14.07;;;9.33;;
7495;SDS011;3789;47.064;15.482;2024-03-08T02:01:27;16.47;;;9.50;;
7495;SDS011;3789;47.064;15.482;2024-03-08T02:03:55;18.57;;;10.07;;
7495;SDS011;3789;47.064;15.482;2024-03-08T02:06:23;13.83;;;9.37;;
7495;SDS011;3789;47.064;15.482;2024-03-08T02:08:50;16.63;;;10.30;;
7495;SDS011;3789;47.064;15.482;2024-03-08T02:11:18;13.83;;;9.07;;
7495;SDS011;3789;47.064;15.482;2024-03-08T02:13:47;15.13;;;9.53;;
7495;SDS011;3789;47.064;15.482;2024-03-08T02:16:20;13.87;;;9.77;;
7495;SDS011;3789;47.064;15.482;2024-03-08T02:18:49;14.97;;;9.33;;
7495;SDS011;3789;47.064;15.482;2024-03-08T02:21:17;14.20;;;9.03;;
7495;SDS011;3789;47.064;15.482;2024-03-08T02:23:45;11.90;;;8.53;;
7495;SDS011;3789;47.064;15.482;2024-03-08T02:26:13;12.63;;;9.13;;
7495;SDS011;3789;47.064;15.482;2024-03-08T02:28:40;13.57;;;8.73;;
7495;SDS011;3789;47.064;15.482;2024-03-08T02:31:10;14.83;;;9.07;;
7495;SDS011;3789;47.064;15.482;2024-03-08T02:33:38;15.07;;;9.63;;
7495;SDS011;3789;47.064;15.482;2024-03-08T02:36:09;14.57;;;9.47;;
7495;SDS011;3789;47.064;15.482;2024-03-08T02:38:44;17.40;;;9.63;;
7495;SDS011;3789;47.064;15.482;2024-03-08T02:41:13;16.87;;;9.93;;
7495;SDS011;3789;47.064;15.482;2024-03-08T02:43:42;14.43;;;8.87;;
7495;SDS011;3789;47.064;15.482;2024-03-08T02:46:13;16.40;;;10.20;;
7495;SDS011;3789;47.064;15.482;2024-03-08T02:48:44;16.97;;;9.97;;
7495;SDS011;3789;47.064;15.482;2024-03-08T02:51:13;13.03;;;9.33;;
7495;SDS011;3789;47.064;15.482;2024-03-08T02:53:49;13.73;;;9.33;;
7495;SDS011;3789;47.064;15.482;2024-03-08T02:56:19;17.40;;;10.20;;
7495;SDS011;3789;47.064;15.482;2024-03-08T02:58:48;16.07;;;9.77;;
7495;SDS011;3789;47.064;15.482;2024-03-08T03:01:17;13.47;;;9.40;;
7495;SDS011;3789;47.064;15.482;2024-03-08T03:03:48;17.07;;;9.90;;
7495;SDS011;3789;47.064;15.482;2024-03-08T03:06:18;15.40;;;9.57;;
7495;SDS011;3789;47.064;15.482;2024-03-08T03:08:49;16.77;;;9.63;;
7495;SDS011;3789;47.064;15.482;2024-03-08T03:11:19;14.13;;;10.00;;
7495;SDS011;3789;47.064;15.482;2024-03-08T03:13:50;14.20;;;10.40;;
7495;SDS011;3789;47.064;15.482;2024-03-08T03:16:26;15.77;;;9.63;;
7495;SDS011;3789;47.064;15.482;2024-03-08T03:19:02;14.83;;;10.13;;
7495;SDS011;3789;47.064;15.482;2024-03-08T03:21:38;14.97;;;9.27;;
7495;SDS011;3789;47.064;15.482;2024-03-08T03:24:06;16.03;;;9.83;;
7495;SDS011;3789;47.064;15.482;2024-03-08T03:26:37;18.20;;;11.50;;
7495;SDS011;3789;47.064;15.482;2024-03-08T03:29:07;16.87;;;11.03;;
7495;SDS011;3789;47.064;15.482;2024-03-08T03:31:40;15.87;;;10.60;;
7495;SDS011;3789;47.064;15.482;2024-03-08T03:34:10;18.80;;;10.90;;
7495;SDS011;3789;47.064;15.482;2024-03-08T03:36:39;16.20;;;11.23;;
7495;SDS011;3789;47.064;15.482;2024-03-08T03:39:15;20.53;;;11.03;;
7495;SDS011;3789;47.064;15.482;2024-03-08T03:41:50;17.87;;;10.60;;
7495;SDS011;3789;47.064;15.482;2024-03-08T03:44:20;19.17;;;11.37;;
7495;SDS011;3789;47.064;15.482;2024-03-08T03:46:51;18.57;;;10.53;;
7495;SDS011;3789;47.064;15.482;2024-03-08T03:49:21;19.20;;;11.47;;
7495;SDS011;3789;47.064;15.482;2024-03-08T03:51:53;17.73;;;11.20;;
7495;SDS011;3789;47.064;15.482;2024-03-08T03:54:23;17.90;;;10.73;;
7495;SDS011;3789;47.064;15.482;2024-03-08T03:56:50;15.77;;;10.47;;
7495;SDS011;3789;47.064;15.482;2024-03-08T03:59:20;14.90;;;9.47;;
7495;SDS011;3789;47.064;15.482;2024-03-08T04:01:50;17.93;;;10.60;;
7495;SDS011;3789;47.064;15.482;2024-03-08T04:04:27;17.07;;;11.20;;
7495;SDS011;3789;47.064;15.482;2024-03-08T04:06:57;18.93;;;10.97;;
7495;SDS011;3789;47.064;15.482;2024-03-08T04:09:28;18.20;;;9.43;;
7495;SDS011;3789;47.064;15.482;2024-03-08T04:11:56;17.20;;;10.43;;
7495;SDS011;3789;47.064;15.482;2024-03-08T04:14:25;15.50;;;10.50;;
7495;SDS011;3789;47.064;15.482;2024-03-08T04:17:02;19.17;;;10.50;;
7495;SDS011;3789;47.064;15.482;2024-03-08T04:19:32;17.87;;;10.90;;
7495;SDS011;3789;47.064;15.482;2024-03-08T04:22:01;16.67;;;9.37;;
7495;SDS011;3789;47.064;15.482;2024-03-08T04:24:31;22.80;;;11.47;;
7495;SDS011;3789;47.064;15.482;2024-03-08T04:27:00;19.07;;;11.30;;
7495;SDS011;3789;47.064;15.482;2024-03-08T04:29:35;19.27;;;11.20;;
7495;SDS011;3789;47.064;15.482;2024-03-08T04:32:04;17.67;;;10.47;;
7495;SDS011;3789;47.064;15.482;2024-03-08T04:34:33;18.37;;;10.77;;
7495;SDS011;3789;47.064;15.482;2024-03-08T04:37:13;19.00;;;10.20;;
7495;SDS011;3789;47.064;15.482;2024-03-08T04:39:42;20.13;;;11.13;;
7495;SDS011;3789;47.064;15.482;2024-03-08T04:42:11;19.30;;;10.33;;
7495;SDS011;3789;47.064;15.482;2024-03-08T04:44:40;19.37;;;11.10;;
7495;SDS011;3789;47.064;15.482;2024-03-08T04:47:11;20.97;;;11.67;;
7495;SDS011;3789;47.064;15.482;2024-03-08T04:49:38;20.10;;;12.17;;
7495;SDS011;3789;47.064;15.482;2024-03-08T04:52:08;21.20;;;11.90;;
7495;SDS011;3789;47.064;15.482;2024-03-08T04:54:36;20.97;;;12.23;;
7495;SDS011;3789;47.064;15.482;2024-03-08T04:57:03;19.33;;;11.23;;
7495;SDS011;3789;47.064;15.482;2024-03-08T04:59:35;22.10;;;13.33;;
7495;SDS011;3789;47.064;15.482;2024-03-08T05:02:05;23.07;;;12.97;;
7495;SDS011;3789;47.064;15.482;2024-03-08T05:04:36;21.57;;;11.80;;
7495;SDS011;3789;47.064;15.482;2024-03-08T05:07:03;23.93;;;12.77;;
7495;SDS011;3789;47.064;15.482;2024-03-08T05:09:33;20.63;;;12.73;;
7495;SDS011;3789;47.064;15.482;2024-03-08T05:12:05;22.70;;;13.10;;
7495;SDS011;3789;47.064;15.482;2024-03-08T05:14:32;27.17;;;14.30;;
7495;SDS011;3789;47.064;15.482;2024-03-08T05:17:10;22.03;;;12.20;;
7495;SDS011;3789;47.064;15.482;2024-03-08T05:19:38;23.63;;;12.70;;
7495;SDS011;3789;47.064;15.482;2024-03-08T05:22:08;22.33;;;11.97;;
7495;SDS011;3789;47.064;15.482;2024-03-08T05:24:35;20.10;;;12.93;;
7495;SDS011;3789;47.064;15.482;2024-03-08T05:27:05;24.33;;;13.47;;
7495;SDS011;3789;47.064;15.482;2024-03-08T05:29:35;24.37;;;13.13;;
7495;SDS011;3789;47.064;15.482;2024-03-08T05:32:11;23.97;;;12.50;;
7495;SDS011;3789;47.064;15.482;2024-03-08T05:34:41;21.27;;;12.90;;
7495;SDS011;3789;47.064;15.482;2024-03-08T05:37:11;20.07;;;12.17;;
7495;SDS011;3789;47.064;15.482;2024-03-08T05:39:41;20.00;;;11.90;;
7495;SDS011;3789;47.064;15.482;2024-03-08T05:42:11;22.70;;;13.40;;
7495;SDS011;3789;47.064;15.482;2024-03-08T05:44:43;23.27;;;13.37;;
7495;SDS011;3789;47.064;15.482;2024-03-08T05:47:11;25.57;;;13.83;;
7495;SDS011;3789;47.064;15.482;2024-03-08T05:49:41;26.20;;;13.43;;
7495;SDS011;3789;47.064;15.482;2024-03-08T05:52:13;26.60;;;14.13;;
7495;SDS011;3789;47.064;15.482;2024-03-08T05:54:41;27.87;;;15.63;;
7495;SDS011;3789;47.064;15.482;2024-03-08T05:57:11;28.37;;;14.80;;
7495;SDS011;3789;47.064;15.482;2024-03-08T05:59:40;30.03;;;16.73;;
7495;SDS011;3789;47.064;15.482;2024-03-08T06:02:11;28.23;;;16.10;;
7495;SDS011;3789;47.064;15.482;2024-03-08T06:04:45;29.87;;;16.93;;
7495;SDS011;3789;47.064;15.482;2024-03-08T06:07:17;30.70;;;16.83;;
7495;SDS011;3789;47.064;15.482;2024-03-08T06:09:46;30.70;;;17.33;;
7495;SDS011;3789;47.064;15.482;2024-03-08T06:12:15;29.60;;;16.97;;
7495;SDS011;3789;47.064;15.482;2024-03-08T06:14:48;30.60;;;16.53;;
7495;SDS011;3789;47.064;15.482;2024-03-08T06:17:18;25.57;;;15.33;;
7495;SDS011;3789;47.064;15.482;2024-03-08T06:19:56;19.97;;;12.93;;
7495;SDS011;3789;47.064;15.482;2024-03-08T06:22:28;16.73;;;11.60;;
7495;SDS011;3789;47.064;15.482;2024-03-08T06:24:59;17.53;;;10.77;;
7495;SDS011;3789;47.064;15.482;2024-03-08T06:27:27;14.73;;;9.93;;
7495;SDS011;3789;47.064;15.482;2024-03-08T06:29:55;14.77;;;10.30;;
7495;SDS011;3789;47.064;15.482;2024-03-08T06:32:24;15.23;;;9.83;;
7495;SDS011;3789;47.064;15.482;2024-03-08T06:34:53;14.90;;;10.57;;
7495;SDS011;3789;47.064;15.482;2024-03-08T06:37:22;17.50;;;10.30;;
7495;SDS011;3789;47.064;15.482;2024-03-08T06:39:52;15.83;;;9.90;;
7495;SDS011;3789;47.064;15.482;2024-03-08T06:42:24;15.50;;;11.13;;
7495;SDS011;3789;47.064;15.482;2024-03-08T06:44:55;19.27;;;10.90;;
7495;SDS011;3789;47.064;15.482;2024-03-08T06:47:29;13.27;;;9.83;;
7495;SDS011;3789;47.064;15.482;2024-03-08T06:49:57;14.27;;;10.03;;
7495;SDS011;3789;47.064;15.482;2024-03-08T06:52:39;17.03;;;10.63;;
7495;SDS011;3789;47.064;15.482;2024-03-08T06:55:09;15.07;;;9.67;;
7495;SDS011;3789;47.064;15.482;2024-03-08T06:57:39;16.40;;;10.10;;
7495;SDS011;3789;47.064;15.482;2024-03-08T07:00:08;15.07;;;9.83;;
7495;SDS011;3789;47.064;15.482;2024-03-08T07:02:44;13.60;;;9.37;;
7495;SDS011;3789;47.064;15.482;2024-03-08T07:05:21;13.00;;;9.63;;
7495;SDS011;3789;47.064;15.482;2024-03-08T07:07:51;14.73;;;8.97;;
7495;SDS011;3789;47.064;15.482;2024-03-08T07:10:25;14.40;;;9.90;;
7495;SDS011;3789;47.064;15.482;2024-03-08T07:12:54;13.30;;;9.57;;
7495;SDS011;3789;47.064;15.482;2024-03-08T07:15:30;12.83;;;10.23;;
7495;SDS011;3789;47.064;15.482;2024-03-08T07:17:57;12.93;;;9.87;;
7495;SDS011;3789;47.064;15.482;2024-03-08T07:20:28;13.80;;;9.77;;
7495;SDS011;3789;47.064;15.482;2024-03-08T07:22:55;13.33;;;9.63;;
7495;SDS011;3789;47.064;15.482;2024-03-08T07:25:24;13.50;;;10.70;;
7495;SDS011;3789;47.064;15.482;2024-03-08T07:27:59;13.53;;;9.50;;
7495;SDS011;3789;47.064;15.482;2024-03-08T07:30:28;14.73;;;9.50;;
7495;SDS011;3789;47.064;15.482;2024-03-08T07:33:15;14.37;;;9.87;;
7495;SDS011;3789;47.064;15.482;2024-03-08T07:35:51;12.07;;;9.67;;
7495;SDS011;3789;47.064;15.482;2024-03-08T07:38:20;13.47;;;9.50;;
7495;SDS011;3789;47.064;15.482;2024-03-08T07:41:02;16.27;;;10.40;;
7495;SDS011;3789;47.064;15.482;2024-03-08T07:43:31;16.80;;;11.07;;
7495;SDS011;3789;47.064;15.482;2024-03-08T07:46:02;15.57;;;10.33;;
7495;SDS011;3789;47.064;15.482;2024-03-08T07:48:31;16.40;;;11.13;;
7495;SDS011;3789;47.064;15.482;2024-03-08T07:51:09;14.97;;;11.10;;
7495;SDS011;3789;47.064;15.482;2024-03-08T07:53:39;17.97;;;11.53;;
7495;SDS011;3789;47.064;15.482;2024-03-08T07:56:08;15.93;;;11.73;;
7495;SDS011;3789;47.064;15.482;2024-03-08T07:58:46;18.90;;;12.13;;
7495;SDS011;3789;47.064;15.482;2024-03-08T08:01:17;17.03;;;11.83;;
7495;SDS011;3789;47.064;15.482;2024-03-08T08:03:50;17.87;;;11.43;;
7495;SDS011;3789;47.064;15.482;2024-03-08T08:06:29;19.13;;;12.27;;
7495;SDS011;3789;47.064;15.482;2024-03-08T08:09:07;18.37;;;11.43;;
7495;SDS011;3789;47.064;15.482;2024-03-08T08:11:55;17.53;;;11.40;;
7495;SDS011;3789;47.064;15.482;2024-03-08T08:14:25;19.40;;;12.87;;
7495;SDS011;3789;47.064;15.482;2024-03-08T08:17:02;17.80;;;11.87;;
7495;SDS011;3789;47.064;15.482;2024-03-08T08:19:32;22.80;;;12.43;;
7495;SDS011;3789;47.064;15.482;2024-03-08T08:22:02;22.30;;;13.90;;
7495;SDS011;3789;47.064;15.482;2024-03-08T08:24:32;26.47;;;15.03;;
7495;SDS011;3789;47.064;15.482;2024-03-08T08:27:09;24.37;;;14.77;;
7495;SDS011;3789;47.064;15.482;2024-03-08T08:29:39;22.53;;;14.37;;
7495;SDS011;3789;47.064;15.482;2024-03-08T08:32:08;21.93;;;13.87;;
7495;SDS011;3789;47.064;15.482;2024-03-08T08:34:44;21.87;;;14.27;;
7495;SDS011;3789;47.064;15.482;2024-03-08T08:37:21;27.13;;;15.73;;
7495;SDS011;3789;47.064;15.482;2024-03-08T08:39:51;27.47;;;14.70;;
7495;SDS011;3789;47.064;15.482;2024-03-08T08:42:21;23.40;;;13.90;;
7495;SDS011;3789;47.064;15.482;2024-03-08T08:44:52;20.00;;;12.20;;
7495;SDS011;3789;47.064;15.482;2024-03-08T08:47:21;21.17;;;12.83;;
7495;SDS011;3789;47.064;15.482;2024-03-08T08:49:52;21.07;;;13.30;;
7495;SDS011;3789;47.064;15.482;2024-03-08T08:52:22;20.07;;;13.60;;
7495;SDS011;3789;47.064;15.482;2024-03-08T08:54:59;18.33;;;12.27;;
7495;SDS011;3789;47.064;15.482;2024-03-08T08:57:27;19.27;;;11.43;;
7495;SDS011;3789;47.064;15.482;2024-03-08T08:59:57;23.83;;;13.23;;
7495;SDS011;3789;47.064;15.482;2024-03-08T09:02:38;20.03;;;12.87;;
7495;SDS011;3789;47.064;15.482;2024-03-08T09:05:05;21.37;;;13.23;;
7495;SDS011;3789;47.064;15.482;2024-03-08T09:07:56;17.93;;;12.00;;
7495;SDS011;3789;47.064;15.482;2024-03-08T09:10:29;18.90;;;11.50;;
7495;SDS011;3789;47.064;15.482;2024-03-08T09:12:58;20.67;;;13.53;;
7495;SDS011;3789;47.064;15.482;2024-03-08T09:15:28;20.67;;;12.80;;
7495;SDS011;3789;47.064;15.482;2024-03-08T09:17:57;18.30;;;11.47;;
7495;SDS011;3789;47.064;15.482;2024-03-08T09:20:26;19.70;;;12.40;;
7495;SDS011;3789;47.064;15.482;2024-03-08T09:22:59;21.00;;;12.37;;
7495;SDS011;3789;47.064;15.482;2024-03-08T09:25:32;19.33;;;12.03;;
7495;SDS011;3789;47.064;15.482;2024-03-08T09:28:00;20.27;;;12.37;;
7495;SDS011;3789;47.064;15.482;2024-03-08T09:30:28;16.73;;;10.80;;
7495;SDS011;3789;47.064;15.482;2024-03-08T09:32:57;18.73;;;11.60;;
7495;SDS011;3789;47.064;15.482;2024-03-08T09:35:25;17.70;;;11.17;;
7495;SDS011;3789;47.064;15.482;2024-03-08T09:37:56;14.77;;;10.47;;
7495;SDS011;3789;47.064;15.482;2024-03-08T09:40:25;16.07;;;9.77;;
7495;SDS011;3789;47.064;15.482;2024-03-08T09:42:56;15.40;;;10.47;;
7495;SDS011;3789;47.064;15.482;2024-03-08T09:45:28;16.60;;;10.53;;
7495;SDS011;3789;47.064;15.482;2024-03-08T09:48:10;18.00;;;10.80;;
7495;SDS011;3789;47.064;15.482;2024-03-08T09:50:41;16.77;;;10.73;;
7495;SDS011;3789;47.064;15.482;2024-03-08T09:53:17;15.13;;;10.53;;
7495;SDS011;3789;47.064;15.482;2024-03-08T09:55:50;14.90;;;10.00;;
7495;SDS011;3789;47.064;15.482;2024-03-08T09:58:21;16.03;;;9.40;;
7495;SDS011;3789;47.064;15.482;2024-03-08T10:01:03;15.90;;;10.47;;
7495;SDS011;3789;47.064;15.482;2024-03-08T10:03:32;15.83;;;10.67;;
7495;SDS011;3789;47.064;15.482;2024-03-08T10:06:03;19.77;;;11.47;;
7495;SDS011;3789;47.064;15.482;2024-03-08T10:08:33;15.23;;;10.90;;
7495;SDS011;3789;47.064;15.482;2024-03-08T10:11:04;18.83;;;10.80;;
7495;SDS011;3789;47.064;15.482;2024-03-08T10:13:33;16.77;;;10.80;;
7495;SDS011;3789;47.064;15.482;2024-03-08T10:16:04;15.87;;;10.57;;
7495;SDS011;3789;47.064;15.482;2024-03-08T10:18:34;17.17;;;9.77;;
7495;SDS011;3789;47.064;15.482;2024-03-08T10:21:07;14.20;;;9.23;;
7495;SDS011;3789;47.064;15.482;2024-03-08T10:23:45;14.37;;;9.40;;
7495;SDS011;3789;47.064;15.482;2024-03-08T10:26:15;12.90;;;8.73;;
7495;SDS011;3789;47.064;15.482;2024-03-08T10:28:48;11.70;;;9.13;;
7495;SDS011;3789;47.064;15.482;2024-03-08T10:31:24;12.87;;;8.83;;
7495;SDS011;3789;47.064;15.482;2024-03-08T10:33:53;12.37;;;7.87;;
7495;SDS011;3789;47.064;15.482;2024-03-08T10:36:32;13.47;;;8.97;;
7495;SDS011;3789;47.064;15.482;2024-03-08T10:39:05;13.63;;;8.57;;
7495;SDS011;3789;47.064;15.482;2024-03-08T10:41:53;11.90;;;8.40;;
7495;SDS011;3789;47.064;15.482;2024-03-08T10:47:12;14.03;;;9.17;;
7495;SDS011;3789;47.064;15.482;2024-03-08T10:50:20;12.37;;;7.80;;
7495;SDS011;3789;47.064;15.482;2024-03-08T10:52:50;11.33;;;7.57;;
7495;SDS011;3789;47.064;15.482;2024-03-08T10:55:23;14.60;;;7.70;;
7495;SDS011;3789;47.064;15.482;2024-03-08T10:57:55;11.80;;;8.47;;
7495;SDS011;3789;47.064;15.482;2024-03-08T11:00:23;11.30;;;7.90;;
7495;SDS011;3789;47.064;15.482;2024-03-08T11:02:55;13.30;;;8.10;;
7495;SDS011;3789;47.064;15.482;2024-03-08T11:05:41;11.93;;;8.30;;
7495;SDS011;3789;47.064;15.482;2024-03-08T11:08:27;12.53;;;7.90;;
7495;SDS011;3789;47.064;15.482;2024-03-08T11:11:02;13.43;;;8.37;;
7495;SDS011;3789;47.064;15.482;2024-03-08T11:13:40;11.03;;;8.27;;
7495;SDS011;3789;47.064;15.482;2024-03-08T11:16:59;12.00;;;7.77;;
7495;SDS011;3789;47.064;15.482;2024-03-08T11:22:01;9.47;;;6.50;;
7495;SDS011;3789;47.064;15.482;2024-03-08T11:24:38;10.37;;;6.33;;
7495;SDS011;3789;47.064;15.482;2024-03-08T11:27:08;8.93;;;7.20;;
7495;SDS011;3789;47.064;15.482;2024-03-08T11:29:38;7.93;;;6.03;;
7495;SDS011;3789;47.064;15.482;2024-03-08T11:32:17;9.93;;;6.80;;
7495;SDS011;3789;47.064;15.482;2024-03-08T11:34:48;10.37;;;6.67;;
7495;SDS011;3789;47.064;15.482;2024-03-08T11:37:18;9.80;;;8.00;;
7495;SDS011;3789;47.064;15.482;2024-03-08T11:39:50;10.23;;;6.30;;
7495;SDS011;3789;47.064;15.482;2024-03-08T11:42:30;8.70;;;6.17;;
7495;SDS011;3789;47.064;15.482;2024-03-08T11:45:09;10.07;;;6.83;;
7495;SDS011;3789;47.064;15.482;2024-03-08T11:47:45;10.07;;;6.70;;
7495;SDS011;3789;47.064;15.482;2024-03-08T11:50:18;10.03;;;6.33;;
7495;SDS011;3789;47.064;15.482;2024-03-08T11:53:04;10.13;;;6.50;;
7495;SDS011;3789;47.064;15.482;2024-03-08T11:55:35;9.83;;;7.20;;
7495;SDS011;3789;47.064;15.482;2024-03-08T11:58:10;9.93;;;7.23;;
7495;SDS011;3789;47.064;15.482;2024-03-08T12:00:48;11.17;;;7.60;;
7495;SDS011;3789;47.064;15.482;2024-03-08T12:03:19;8.63;;;6.50;;
7495;SDS011;3789;47.064;15.482;2024-03-08T12:05:57;11.90;;;7.47;;
7495;SDS011;3789;47.064;15.482;2024-03-08T12:08:45;10.17;;;6.57;;
7495;SDS011;3789;47.064;15.482;2024-03-08T12:11:22;10.17;;;6.90;;
7495;SDS011;3789;47.064;15.482;2024-03-08T12:13:56;9.27;;;6.50;;
7495;SDS011;3789;47.064;15.482;2024-03-08T12:16:24;9.67;;;6.47;;
7495;SDS011;3789;47.064;15.482;2024-03-08T12:18:54;8.33;;;6.23;;
7495;SDS011;3789;47.064;15.482;2024-03-08T12:21:23;8.97;;;6.27;;
7495;SDS011;3789;47.064;15.482;2024-03-08T12:24:16;8.40;;;7.03;;
7495;SDS011;3789;47.064;15.482;2024-03-08T12:26:49;8.13;;;6.27;;
7495;SDS011;3789;47.064;15.482;2024-03-08T12:29:27;8.27;;;6.47;;
7495;SDS011;3789;47.064;15.482;2024-03-08T12:31:55;9.93;;;6.90;;
7495;SDS011;3789;47.064;15.482;2024-03-08T12:34:33;11.10;;;7.33;;
7495;SDS011;3789;47.064;15.482;2024-03-08T12:37:03;8.80;;;6.90;;
7495;SDS011;3789;47.064;15.482;2024-03-08T12:39:35;11.13;;;7.47;;
7495;SDS011;3789;47.064;15.482;2024-03-08T12:42:11;10.37;;;7.30;;
7495;SDS011;3789;47.064;15.482;2024-03-08T12:44:38;11.27;;;8.00;;
7495;SDS011;3789;47.064;15.482;2024-03-08T12:47:11;10.00;;;7.00;;
7495;SDS011;3789;47.064;15.482;2024-03-08T12:49:41;12.47;;;8.13;;
7495;SDS011;3789;47.064;15.482;2024-03-08T12:52:10;9.17;;;6.50;;
7495;SDS011;3789;47.064;15.482;2024-03-08T12:54:42;9.60;;;6.73;;
7495;SDS011;3789;47.064;15.482;2024-03-08T12:57:11;9.50;;;7.47;;
7495;SDS011;3789;47.064;15.482;2024-03-08T12:59:40;9.53;;;6.50;;
7495;SDS011;3789;47.064;15.482;2024-03-08T13:02:14;10.23;;;7.13;;
7495;SDS011;3789;47.064;15.482;2024-03-08T13:04:49;9.30;;;7.07;;
7495;SDS011;3789;47.064;15.482;2024-03-08T13:07:26;9.77;;;6.67;;
7495;SDS011;3789;47.064;15.482;2024-03-08T13:09:55;13.43;;;7.70;;
7495;SDS011;3789;47.064;15.482;2024-03-08T13:12:23;9.83;;;6.47;;
7495;SDS011;3789;47.064;15.482;2024-03-08T13:15:01;10.57;;;6.60;;
7495;SDS011;3789;47.064;15.482;2024-03-08T13:17:48;8.87;;;6.70;;
7495;SDS011;3789;47.064;15.482;2024-03-08T13:20:19;9.60;;;6.90;;
7495;SDS011;3789;47.064;15.482;2024-03-08T13:22:59;10.03;;;7.03;;
7495;SDS011;3789;47.064;15.482;2024-03-08T13:25:29;8.03;;;6.57;;
7495;SDS011;3789;47.064;15.482;2024-03-08T13:28:00;12.23;;;8.07;;
7495;SDS011;3789;47.064;15.482;2024-03-08T13:30:32;10.93;;;7.30;;
7495;SDS011;3789;47.064;15.482;2024-03-08T13:33:04;12.10;;;7.77;;
7495;SDS011;3789;47.064;15.482;2024-03-08T13:35:35;9.97;;;6.77;;
7495;SDS011;3789;47.064;15.482;2024-03-08T13:38:10;8.13;;;6.00;;
7495;SDS011;3789;47.064;15.482;2024-03-08T13:40:39;10.13;;;5.97;;
7495;SDS011;3789;47.064;15.482;2024-03-08T13:43:17;10.13;;;6.67;;
7495;SDS011;3789;47.064;15.482;2024-03-08T13:45:48;8.63;;;6.30;;
7495;SDS011;3789;47.064;15.482;2024-03-08T13:48:23;8.40;;;6.47;;
7495;SDS011;3789;47.064;15.482;2024-03-08T13:50:53;8.50;;;5.50;;
7495;SDS011;3789;47.064;15.482;2024-03-08T13:53:24;9.43;;;6.33;;
7495;SDS011;3789;47.064;15.482;2024-03-08T13:56:00;8.50;;;6.17;;
7495;SDS011;3789;47.064;15.482;2024-03-08T13:58:33;9.27;;;6.47;;
7495;SDS011;3789;47.064;15.482;2024-03-08T14:01:02;7.87;;;6.30;;
7495;SDS011;3789;47.064;15.482;2024-03-08T14:03:34;9.83;;;6.67;;
7495;SDS011;3789;47.064;15.482;2024-03-08T14:06:08;10.00;;;7.03;;
7495;SDS011;3789;47.064;15.482;2024-03-08T14:09:09;9.67;;;6.77;;
7495;SDS011;3789;47.064;15.482;2024-03-08T14:11:46;8.80;;;6.20;;
7495;SDS011;3789;47.064;15.482;2024-03-08T14:14:17;9.30;;;6.70;;
7495;SDS011;3789;47.064;15.482;2024-03-08T14:16:48;11.67;;;7.10;;
7495;SDS011;3789;47.064;15.482;2024-03-08T14:19:26;9.37;;;7.00;;
7495;SDS011;3789;47.064;15.482;2024-03-08T14:21:54;9.77;;;7.23;;
7495;SDS011;3789;47.064;15.482;2024-03-08T14:24:23;9.97;;;7.60;;
7495;SDS011;3789;47.064;15.482;2024-03-08T14:26:53;10.47;;;7.63;;
7495;SDS011;3789;47.064;15.482;2024-03-08T14:29:30;10.90;;;7.90;;
7495;SDS011;3789;47.064;15.482;2024-03-08T14:32:00;12.23;;;8.33;;
7495;SDS011;3789;47.064;15.482;2024-03-08T14:34:36;10.77;;;7.37;;
7495;SDS011;3789;47.064;15.482;2024-03-08T14:37:05;11.07;;;7.50;;
7495;SDS011;3789;47.064;15.482;2024-03-08T14:39:38;10.70;;;7.97;;
7495;SDS011;3789;47.064;15.482;2024-03-08T14:42:09;11.57;;;7.50;;
7495;SDS011;3789;47.064;15.482;2024-03-08T14:44:42;12.07;;;8.10;;
7495;SDS011;3789;47.064;15.482;2024-03-08T14:47:15;10.17;;;6.90;;
7495;SDS011;3789;47.064;15.482;2024-03-08T14:49:44;10.57;;;7.33;;
7495;SDS011;3789;47.064;15.482;2024-03-08T14:52:15;10.90;;;7.37;;
7495;SDS011;3789;47.064;15.482;2024-03-08T14:55:02;10.37;;;7.73;;
7495;SDS011;3789;47.064;15.482;2024-03-08T14:57:51;10.73;;;7.50;;
7495;SDS011;3789;47.064;15.482;2024-03-08T15:00:21;11.90;;;8.33;;
7495;SDS011;3789;47.064;15.482;2024-03-08T15:03:28;12.00;;;9.20;;
7495;SDS011;3789;47.064;15.482;2024-03-08T15:06:07;12.17;;;7.70;;
7495;SDS011;3789;47.064;15.482;2024-03-08T15:08:37;13.07;;;8.60;;
7495;SDS011;3789;47.064;15.482;2024-03-08T15:11:18;13.07;;;8.07;;
7495;SDS011;3789;47.064;15.482;2024-03-08T15:13:52;12.97;;;8.50;;
7495;SDS011;3789;47.064;15.482;2024-03-08T15:16:20;12.40;;;8.30;;